Nearby METAR Reports

 

KCMH - Columbus, Ohio, USA
Distance from station: SW 5mi, 8km
Updated: Wed, 20-Feb-2019 10:51am EST
Light drizzle, Mist, Overcast
Light drizzle, Mist, Overcast
 Wind from SE
Wind: SE 14 mph , 22 km/h
Temperature: 36°F , 2°C
Wind Chill: 27°F , -3°C
Dew Point: 34°F , 1°C
Humidity: 93%
Barometer: 30.02 inHg , 1016.6 hPa
Summary: Light drizzle, Mist
Clouds: Overcast
Visibility: 2 1/2 miles , 4 km
Cloud details: Overcast 600 ft
2019/02/20 15:51 KCMH 201551Z 13012KT 2 1/2SM -DZ BR OVC006 02/01 A3002 RMK AO2 RAE10DZB10 SLP173 P0000 T00170006
KOSU - Columbus/St Univ, Ohio, USA
Distance from station: W 14mi, 23km
Updated: Wed, 20-Feb-2019 10:53am EST
Mist, Overcast
Mist, Overcast
 Wind from SE
Wind: SE 12 mph , 19 km/h
Temperature: 36°F , 2°C
Wind Chill: 28°F , -2°C
Dew Point: 34°F , 1°C
Humidity: 93%
Barometer: 30.01 inHg , 1016.3 hPa
Summary: Mist
Clouds: Overcast
Visibility: 2 1/2 miles , 4 km
Cloud details: Overcast 500 ft
2019/02/20 15:53 KOSU 201553Z 13010KT 2 1/2SM BR OVC005 02/01 A3001 RMK AO2 SLP171 T00170011
 
KLCK - Rickenbacker Ang, Ohio, USA
Distance from station: SSW 17mi, 27km
Updated: Wed, 20-Feb-2019 10:55am EST
Mist, Overcast
Mist, Overcast
 Wind from ESE
Wind: ESE 9 mph , 15 km/h
Temperature: 36°F , 2°C
Wind Chill: 29°F , -2°C
Dew Point: 34°F , 1°C
Humidity: 93%
Barometer: 30.03 inHg , 1016.9 hPa
Summary: Mist
Clouds: Overcast
Visibility: 2 1/2 miles , 4 km
Cloud details: Overcast 900 ft
2019/02/20 15:55 KLCK 201555Z AUTO 12008KT 2 1/2SM BR OVC009 02/01 A3003 RMK AO2 T00170012
KVTA - Newark, Ohio, USA
Distance from station: E 19mi, 30km
Updated: Wed, 20-Feb-2019 11:10am EST
Mist, Overcast
Mist, Overcast
 Wind from SE
Wind: SE 7 mph , 11 km/h
Temperature: 37°F , 3°C
Wind Chill: 32°F , 0°C
Dew Point: 34°F , 1°C
Humidity: 87%
Barometer: 30.03 inHg , 1016.9 hPa
Summary: Mist
Clouds: Overcast
Visibility: 2 miles , 3 km
Cloud details: Overcast 600 ft
2019/02/20 16:10 KVTA 201610Z AUTO 14006KT 2SM BR OVC006 03/01 A3003 RMK AO2 T00280011
 
KTZR - Columbus/Bolton, Ohio, USA
Distance from station: WSW 20mi, 31km
Updated: Wed, 20-Feb-2019 10:47am EST
Light drizzle, Overcast
Light drizzle, Overcast
 Wind from SE
Wind: SE 9 mph , 15 km/h
Temperature: 34°F , 1°C
Wind Chill: 27°F , -3°C
Dew Point: 34°F , 1°C
Humidity: 100%
Barometer: 30.02 inHg , 1016.6 hPa
Summary: Light Drizzle
Clouds: Overcast
Visibility: 1 1/4 miles , 2 km
Cloud details: Overcast 300 ft
2019/02/20 15:47 KTZR 201547Z 13008KT 1 1/4SM -DZ OVC003 01/01 A3002
KLHQ - Lancaster, Ohio, USA
Distance from station: SSE 22mi, 36km
Updated: Wed, 20-Feb-2019 11:08am EST
Mist, Overcast
Mist, Overcast
 Wind from SE
Wind: SE 13 mph , 20 km/h
Temperature: 36°F , 2°C
Wind Chill: 27°F , -3°C
Dew Point: 36°F , 2°C
Humidity: 100%
Barometer: 30.03 inHg , 1016.9 hPa
Summary: Mist
Clouds: Overcast
Visibility: 3 miles , 5 km
Cloud details: Mostly cloudy 700 ft
Overcast 1000 ft
2019/02/20 16:08 KLHQ 201608Z AUTO 14011KT 3SM UP BR BKN007 OVC010 02/02 A3003 RMK AO2 UPB1559 P0000 T00220017
 
KDLZ - Delaware, Ohio, USA
Distance from station: NW 23mi, 36km
Updated: Wed, 20-Feb-2019 10:56am EST
Mist, Overcast
Mist, Overcast
 Wind from SE
Wind: SE 12 mph , 19 km/h
Temperature: 34°F , 1°C
Wind Chill: 25°F , -4°C
Dew Point: 34°F , 1°C
Humidity: 100%
Barometer: 30.01 inHg , 1016.3 hPa
Summary: Mist
Clouds: Overcast
Visibility: 5 miles , 8 km
Cloud details: Overcast 500 ft
2019/02/20 15:56 KDLZ 201556Z AUTO 13010KT 5SM BR OVC005 01/01 A3001 RMK AO2
K4I3 - Mt Vernon/Knox, Ohio, USA
Distance from station: NE 25mi, 40km
Updated: Wed, 20-Feb-2019 10:56am EST
Light rain, Overcast
Light rain, Overcast
 Wind from E
Wind: E 7 mph , 11 km/h
Temperature: 34°F , 1°C
Wind Chill: 28°F , -2°C
Dew Point: 34°F , 1°C
Humidity: 100%
Barometer: 30.05 inHg , 1017.6 hPa
Summary: Light rain
Clouds: Overcast
Visibility: 1 3/4 miles , 2.8 km
Cloud details: Overcast 300 ft
2019/02/20 15:56 K4I3 201556Z AUTO 10006KT 1 3/4SM -RA OVC003 01/01 A3005 RMK AO2
 
KMRT - Marysville, Ohio, USA
Distance from station: WNW 30mi, 49km
Updated: Wed, 20-Feb-2019 10:56am EST
Overcast
Overcast
 Wind from SE
Wind: SE 7 mph , 11 km/h
Temperature: 34°F , 1°C
Wind Chill: 28°F , -2°C
Dew Point: 32°F , 0°C
Humidity: 93%
Barometer: 30.00 inHg , 1015.9 hPa
Clouds: Overcast
Visibility: 4 miles , 6 km
Cloud details: Overcast 400 ft
2019/02/20 15:56 KMRT 201556Z AUTO 14006KT 4SM OVC004 01/00 A3000 RMK AO2 P0005 T00100004
KMNN - Marion, Ohio, USA
Distance from station: NNW 41mi, 67km
Updated: Wed, 20-Feb-2019 10:53am EST
Mist, Overcast
Mist, Overcast
 Wind from SE
Wind: SE 15 mph , 24 km/h
Temperature: 34°F , 1°C
Wind Chill: 24°F , -4°C
Dew Point: 32°F , 0°C
Humidity: 93%
Barometer: 30.01 inHg , 1016.3 hPa
Summary: Mist
Clouds: Overcast
Visibility: 3 miles , 5 km
Cloud details: Overcast 900 ft
2019/02/20 15:53 KMNN 201553Z AUTO 13013KT 3SM BR OVC009 01/00 A3001 RMK AO2 CIG 006V013 SLP173 T00110000 $
 
KZZV - Zanesville, Ohio, USA
Distance from station: E 49mi, 79km
Updated: Wed, 20-Feb-2019 10:53am EST
Mist, Overcast
Mist, Overcast
 Wind from SE
Wind: SE 8 mph , 13 km/h
Temperature: 36°F , 2°C
Wind Chill: 30°F , -1°C
Dew Point: 34°F , 1°C
Humidity: 93%
Barometer: 30.07 inHg , 1018.3 hPa
Summary: Mist
Clouds: Overcast
Visibility: 1 3/4 miles , 2.8 km
Cloud details: Overcast 500 ft
2019/02/20 15:53 KZZV 201553Z AUTO 13007KT 1 3/4SM BR OVC005 02/01 A3007 RMK AO2 SLP190 T00220011